Time;durP1;ratioP1;P1;durP2;ratioP2;P2;SDS_P1;SDS_P2;PMS_P1;PMS_P2;Temp;Humidity;BMP_temperature;BMP_pressure;BME280_temperature;BME280_humidity;BME280_pressure;Samples;Min_cycle;Max_cycle;Signal;HPM_P1;HPM_P2
2022/04/13 00:01:45;;;;;;;15.57;6.72;;;13.50;99.90;;;;;;4879055;29;20048;-87
2022/04/13 00:04:11;;;;;;;12.63;6.30;;;13.50;99.90;;;;;;4893387;29;20105;-87
2022/04/13 00:06:38;;;;;;;12.63;6.65;;;13.40;99.90;;;;;;4883677;29;20501;-87
2022/04/13 00:09:09;;;;;;;13.73;6.40;;;13.40;99.90;;;;;;4882788;29;20072;-87
2022/04/13 00:11:35;;;;;;;12.38;6.50;;;13.30;99.90;;;;;;4891290;29;20040;-86
2022/04/13 00:14:02;;;;;;;12.20;6.38;;;13.30;99.90;;;;;;4910581;29;20048;-87
2022/04/13 00:16:28;;;;;;;13.63;6.63;;;13.30;99.90;;;;;;4899881;29;20045;-87
2022/04/13 00:18:54;;;;;;;11.07;6.10;;;13.30;99.90;;;;;;4885679;29;20059;-87
2022/04/13 00:21:20;;;;;;;11.45;6.30;;;13.20;99.90;;;;;;4895603;29;20440;-87
2022/04/13 00:23:46;;;;;;;12.55;6.05;;;13.20;99.90;;;;;;4878601;29;20043;-87
2022/04/13 00:26:12;;;;;;;15.60;5.90;;;13.10;99.90;;;;;;4865542;29;20048;-87
2022/04/13 00:28:38;;;;;;;12.63;5.95;;;13.10;99.90;;;;;;4879788;29;20067;-87
2022/04/13 00:31:03;;;;;;;13.05;5.63;;;13.10;99.90;;;;;;4876465;29;20494;-87
2022/04/13 00:33:29;;;;;;;12.55;5.95;;;13.10;99.90;;;;;;4863853;29;20045;-87
2022/04/13 00:35:55;;;;;;;12.07;5.97;;;13.10;99.90;;;;;;4883268;29;20414;-87
2022/04/13 00:38:22;;;;;;;12.57;6.07;;;13.00;99.90;;;;;;4875933;29;20053;-86
2022/04/13 00:40:48;;;;;;;10.77;5.63;;;13.00;99.90;;;;;;4871381;29;20048;-87
2022/04/13 00:43:14;;;;;;;11.55;6.03;;;12.90;99.90;;;;;;4894174;29;20036;-87
2022/04/13 00:45:46;;;;;;;11.18;5.90;;;12.90;99.90;;;;;;4899162;29;20613;-87
2022/04/13 00:48:37;;;;;;;11.32;5.95;;;12.90;99.90;;;;;;4916914;29;20036;-87
2022/04/13 00:51:04;;;;;;;11.88;6.20;;;12.90;99.90;;;;;;4897487;29;20135;-87
2022/04/13 00:53:30;;;;;;;11.45;6.40;;;12.80;99.90;;;;;;4851243;29;20045;-87
2022/04/13 00:55:58;;;;;;;13.70;6.90;;;12.60;99.90;;;;;;4892841;29;20100;-87
2022/04/13 00:58:31;;;;;;;12.52;6.35;;;12.40;99.90;;;;;;4877948;29;20061;-87
2022/04/13 01:00:57;;;;;;;13.02;6.55;;;12.30;99.90;;;;;;4878489;29;20055;-87
2022/04/13 01:03:24;;;;;;;15.85;6.50;;;12.20;99.90;;;;;;4878326;29;20087;-86
2022/04/13 01:05:51;;;;;;;12.95;6.50;;;12.20;99.90;;;;;;4909722;29;20404;-87
2022/04/13 01:08:18;;;;;;;11.98;7.03;;;12.20;99.90;;;;;;4906253;29;20044;-85
2022/04/13 01:10:46;;;;;;;13.40;6.38;;;12.20;99.90;;;;;;4879864;29;20371;-86
2022/04/13 01:13:12;;;;;;;13.82;5.78;;;12.10;99.90;;;;;;4879045;29;20072;-86
2022/04/13 01:15:38;;;;;;;12.90;6.50;;;12.10;99.90;;;;;;4863524;29;20061;-87
2022/04/13 01:18:05;;;;;;;12.93;6.32;;;12.10;99.90;;;;;;4878242;29;20600;-87
2022/04/13 01:20:30;;;;;;;11.45;6.43;;;12.10;99.90;;;;;;4888575;29;20051;-87
2022/04/13 01:22:56;;;;;;;10.75;6.25;;;12.10;99.90;;;;;;4892469;29;20040;-87
2022/04/13 01:25:23;;;;;;;11.65;6.15;;;12.00;99.90;;;;;;4878943;29;20096;-87
2022/04/13 01:27:48;;;;;;;10.70;6.40;;;12.00;99.90;;;;;;4894402;29;20032;-86
2022/04/13 01:30:14;;;;;;;12.23;6.13;;;12.00;99.90;;;;;;4894833;29;20401;-87
2022/04/13 01:32:40;;;;;;;12.15;6.18;;;12.00;99.90;;;;;;4886330;29;20079;-87
2022/04/13 01:35:07;;;;;;;11.73;6.15;;;12.00;99.90;;;;;;4890892;29;20073;-86
2022/04/13 01:37:34;;;;;;;11.93;6.55;;;12.00;99.90;;;;;;4910318;29;20047;-86
2022/04/13 01:40:00;;;;;;;11.02;6.15;;;12.00;99.90;;;;;;4878268;29;20041;-87
2022/04/13 01:42:26;;;;;;;13.77;6.07;;;12.00;99.90;;;;;;4878034;29;20052;-86
2022/04/13 01:44:52;;;;;;;13.35;6.43;;;12.10;99.90;;;;;;4877780;29;20512;-87
2022/04/13 01:47:17;;;;;;;11.15;6.05;;;12.00;99.90;;;;;;4892327;29;20184;-87
2022/04/13 01:49:43;;;;;;;11.45;6.25;;;12.00;99.90;;;;;;4879325;29;20120;-86
2022/04/13 01:52:11;;;;;;;12.65;6.00;;;12.00;99.90;;;;;;4893558;29;20051;-86
2022/04/13 01:54:37;;;;;;;15.27;6.38;;;12.00;99.90;;;;;;4907272;29;20097;-87
2022/04/13 01:57:03;;;;;;;12.38;6.70;;;12.00;99.90;;;;;;4875653;29;20075;-87
2022/04/13 01:59:29;;;;;;;11.57;5.90;;;12.00;99.90;;;;;;4893297;29;20067;-86
2022/04/13 02:01:55;;;;;;;11.95;6.50;;;11.90;99.90;;;;;;4877926;29;20037;-86
2022/04/13 02:04:22;;;;;;;11.43;6.50;;;11.90;99.90;;;;;;4896823;29;20124;-86
2022/04/13 02:06:48;;;;;;;11.93;6.10;;;11.90;99.90;;;;;;4889806;29;20041;-86
2022/04/13 02:09:15;;;;;;;11.23;6.25;;;11.90;99.90;;;;;;4897313;29;20055;-87
2022/04/13 02:11:41;;;;;;;11.90;6.57;;;11.80;99.90;;;;;;4881280;29;20048;-86
2022/04/13 02:14:07;;;;;;;13.38;6.65;;;11.80;99.90;;;;;;4880985;29;20465;-86
2022/04/13 02:16:34;;;;;;;12.63;6.32;;;11.80;99.90;;;;;;4881156;29;20123;-86
2022/04/13 02:19:00;;;;;;;12.27;6.32;;;11.80;99.90;;;;;;4880942;29;20036;-86
2022/04/13 02:21:26;;;;;;;12.15;6.60;;;12.10;99.90;;;;;;4880978;29;20059;-86
2022/04/13 02:23:52;;;;;;;14.02;6.63;;;11.80;99.90;;;;;;4897110;29;20036;-87
2022/04/13 02:26:19;;;;;;;13.02;6.65;;;11.80;99.90;;;;;;4880675;29;20526;-87
2022/04/13 02:28:45;;;;;;;12.85;6.50;;;11.70;99.90;;;;;;4893659;29;20097;-86
2022/04/13 02:31:11;;;;;;;12.07;7.00;;;11.70;99.90;;;;;;4881839;29;20048;-86
2022/04/13 02:33:37;;;;;;;15.35;7.32;;;11.70;99.90;;;;;;4881184;29;20041;-87
2022/04/13 02:36:03;;;;;;;14.18;6.70;;;11.70;99.90;;;;;;4881325;29;20040;-87
2022/04/13 02:38:29;;;;;;;12.40;7.00;;;11.70;99.90;;;;;;4879275;29;20272;-87
2022/04/13 02:40:55;;;;;;;13.55;7.25;;;11.70;99.90;;;;;;4889778;29;20123;-86
2022/04/13 02:43:20;;;;;;;12.65;6.68;;;11.60;99.90;;;;;;4879733;29;20604;-86
2022/04/13 02:45:46;;;;;;;13.05;6.57;;;11.60;99.90;;;;;;4881243;29;20081;-86
2022/04/13 02:48:12;;;;;;;13.35;7.20;;;11.60;99.90;;;;;;4878784;29;20405;-87
2022/04/13 02:50:38;;;;;;;13.20;7.40;;;11.60;99.90;;;;;;4879730;29;20052;-87
2022/04/13 02:53:04;;;;;;;14.57;7.95;;;11.60;99.90;;;;;;4886154;29;20100;-86
2022/04/13 02:55:30;;;;;;;13.23;7.13;;;11.60;99.90;;;;;;4865136;29;20053;-86
2022/04/13 02:57:56;;;;;;;14.02;7.68;;;11.50;99.90;;;;;;4892948;29;20471;-86
2022/04/13 03:00:22;;;;;;;13.85;7.18;;;11.50;99.90;;;;;;4879903;29;20066;-86
2022/04/13 03:02:48;;;;;;;13.77;7.82;;;11.50;99.90;;;;;;4865141;29;20044;-87
2022/04/13 03:05:13;;;;;;;16.48;8.07;;;11.50;99.90;;;;;;4880342;29;20037;-86
2022/04/13 03:07:39;;;;;;;17.80;8.35;;;11.60;99.90;;;;;;4880045;29;20052;-86
2022/04/13 03:10:06;;;;;;;15.55;7.88;;;11.60;99.90;;;;;;4880992;29;20040;-86
2022/04/13 03:12:35;;;;;;;13.65;8.18;;;11.60;99.90;;;;;;4886017;29;20036;-86
2022/04/13 03:15:05;;;;;;;17.25;9.02;;;11.60;99.90;;;;;;4865560;29;20515;-86
2022/04/13 03:17:32;;;;;;;14.30;8.38;;;11.60;99.90;;;;;;4897367;29;20048;-86
2022/04/13 03:19:57;;;;;;;22.90;9.20;;;11.60;99.90;;;;;;4911422;29;20394;-86
2022/04/13 03:22:24;;;;;;;16.13;8.55;;;11.60;99.90;;;;;;4910605;29;20051;-86
2022/04/13 03:24:51;;;;;;;17.77;8.20;;;11.60;99.90;;;;;;4890775;29;20060;-86
2022/04/13 03:27:18;;;;;;;16.20;8.13;;;11.60;99.90;;;;;;4864654;29;20033;-86
2022/04/13 03:29:43;;;;;;;14.75;8.30;;;11.50;99.90;;;;;;4880519;29;20028;-87
2022/04/13 03:32:09;;;;;;;15.13;8.50;;;11.50;99.90;;;;;;4892736;29;20064;-86
2022/04/13 03:34:35;;;;;;;13.90;8.63;;;11.50;99.90;;;;;;4880201;29;20104;-86
2022/04/13 03:37:01;;;;;;;14.68;8.75;;;11.40;99.90;;;;;;4878987;29;20041;-86
2022/04/13 03:39:27;;;;;;;16.27;8.48;;;11.40;99.90;;;;;;4892952;29;20434;-86
2022/04/13 03:41:53;;;;;;;13.70;8.25;;;11.40;99.90;;;;;;4880292;29;20100;-86
2022/04/13 03:44:19;;;;;;;16.40;9.52;;;11.40;99.90;;;;;;4881081;29;20049;-86
2022/04/13 03:46:45;;;;;;;16.95;9.70;;;11.40;99.90;;;;;;4879591;29;20048;-87
2022/04/13 03:49:11;;;;;;;16.92;9.85;;;11.40;99.90;;;;;;4894931;29;20040;-86
2022/04/13 03:51:37;;;;;;;19.98;9.88;;;11.30;99.90;;;;;;4894462;29;20407;-86
2022/04/13 03:54:03;;;;;;;20.13;10.70;;;11.30;99.90;;;;;;4911450;29;20083;-86
2022/04/13 03:56:29;;;;;;;19.00;10.43;;;11.30;99.90;;;;;;4879010;29;20465;-86
2022/04/13 03:58:57;;;;;;;18.85;9.82;;;11.30;99.90;;;;;;4913393;29;20056;-87
2022/04/13 04:01:23;;;;;;;20.80;10.63;;;11.30;99.90;;;;;;4905614;29;20055;-86
2022/04/13 04:03:49;;;;;;;18.30;10.57;;;11.40;99.90;;;;;;4879508;29;20045;-86
2022/04/13 04:06:14;;;;;;;16.35;10.20;;;11.40;99.90;;;;;;4879128;29;20032;-86
2022/04/13 04:08:40;;;;;;;16.70;9.90;;;11.50;99.90;;;;;;4879526;29;20032;-86
2022/04/13 04:11:05;;;;;;;17.20;10.30;;;11.40;99.90;;;;;;4879018;29;20520;-86
2022/04/13 04:13:31;;;;;;;17.38;10.05;;;11.40;99.90;;;;;;4864978;29;20514;-86
2022/04/13 04:15:59;;;;;;;20.35;11.15;;;11.40;99.90;;;;;;4910659;29;20036;-85
2022/04/13 04:18:24;;;;;;;17.95;9.93;;;11.40;99.90;;;;;;4880799;29;20184;-86
2022/04/13 04:20:50;;;;;;;18.73;10.27;;;11.40;99.90;;;;;;4879283;29;20154;-86
2022/04/13 04:23:16;;;;;;;15.23;9.40;;;11.50;99.90;;;;;;4869388;29;20533;-86
2022/04/13 04:25:42;;;;;;;17.92;10.32;;;11.40;99.90;;;;;;4877423;29;20041;-86
2022/04/13 04:28:10;;;;;;;17.35;10.73;;;11.40;99.90;;;;;;4879053;29;20128;-86
2022/04/13 04:30:37;;;;;;;20.08;11.60;;;11.40;99.90;;;;;;4892349;29;20040;-86
2022/04/13 04:33:04;;;;;;;17.92;10.38;;;11.40;99.90;;;;;;4878618;29;20100;-86
2022/04/13 04:35:29;;;;;;;18.13;10.15;;;11.40;99.90;;;;;;4894616;29;20143;-86
2022/04/13 04:37:55;;;;;;;18.20;10.85;;;11.40;99.90;;;;;;4876867;29;20131;-86
2022/04/13 04:40:21;;;;;;;15.57;9.90;;;11.40;99.90;;;;;;4878521;29;20051;-87
2022/04/13 04:42:48;;;;;;;19.27;11.00;;;11.40;99.90;;;;;;4878412;29;20059;-86
2022/04/13 04:45:19;;;;;;;17.42;10.65;;;11.40;99.90;;;;;;4895258;29;20474;-86
2022/04/13 04:47:49;;;;;;;21.83;12.25;;;11.40;99.90;;;;;;4884222;29;20069;-86
2022/04/13 04:50:20;;;;;;;21.00;12.05;;;11.40;99.90;;;;;;4893715;29;20482;-87
2022/04/13 04:52:46;;;;;;;18.75;10.38;;;11.30;99.90;;;;;;4892016;29;20464;-86
2022/04/13 04:55:14;;;;;;;17.30;10.23;;;11.30;99.90;;;;;;4894229;29;20119;-86
2022/04/13 04:57:40;;;;;;;19.17;10.70;;;11.30;99.90;;;;;;4879859;29;20152;-86
2022/04/13 05:00:08;;;;;;;18.40;11.18;;;11.30;99.90;;;;;;4893560;29;20140;-86
2022/04/13 05:02:37;;;;;;;16.45;10.55;;;11.30;99.90;;;;;;4875760;29;20044;-86
2022/04/13 05:05:04;;;;;;;18.98;10.80;;;11.30;99.90;;;;;;4877790;29;20048;-86
2022/04/13 05:07:29;;;;;;;20.00;11.27;;;11.30;99.90;;;;;;4894209;29;20070;-86
2022/04/13 05:09:55;;;;;;;20.10;10.65;;;11.30;99.90;;;;;;4878122;29;20037;-86
2022/04/13 05:12:21;;;;;;;20.67;12.18;;;11.30;99.90;;;;;;4892781;29;20095;-86
2022/04/13 05:14:47;;;;;;;19.00;11.95;;;11.30;99.90;;;;;;4878572;29;20107;-86
2022/04/13 05:17:14;;;;;;;21.83;11.60;;;11.40;99.90;;;;;;4863357;29;20497;-86
2022/04/13 05:19:39;;;;;;;18.10;10.38;;;11.40;99.90;;;;;;4878590;29;20048;-86
2022/04/13 05:22:05;;;;;;;20.58;11.93;;;11.40;99.90;;;;;;4890687;29;20429;-87
2022/04/13 05:24:31;;;;;;;19.10;11.55;;;11.50;99.90;;;;;;4877931;29;20045;-86
2022/04/13 05:26:57;;;;;;;18.30;10.90;;;11.50;99.90;;;;;;4862351;29;20421;-86
2022/04/13 05:29:22;;;;;;;21.10;12.30;;;11.60;99.90;;;;;;4877810;29;20059;-86
2022/04/13 05:31:48;;;;;;;18.88;10.80;;;11.60;99.90;;;;;;4878392;29;20060;-86
2022/04/13 05:34:14;;;;;;;19.48;11.18;;;11.60;99.90;;;;;;4878637;29;20041;-85
2022/04/13 05:36:40;;;;;;;19.20;11.10;;;11.70;99.90;;;;;;4891161;29;20040;-85
2022/04/13 05:39:05;;;;;;;32.83;11.60;;;11.80;99.90;;;;;;4880883;29;20418;-85
2022/04/13 05:41:31;;;;;;;20.00;11.02;;;11.80;99.90;;;;;;4862889;29;20178;-85
2022/04/13 05:43:57;;;;;;;19.98;11.15;;;11.80;99.90;;;;;;4882337;29;20406;-85
2022/04/13 05:46:23;;;;;;;19.02;10.63;;;11.80;99.90;;;;;;4897472;29;20037;-85
2022/04/13 05:48:48;;;;;;;20.83;11.60;;;11.80;99.90;;;;;;4882282;29;20044;-85
2022/04/13 05:51:14;;;;;;;19.00;11.27;;;11.80;99.90;;;;;;4897403;29;20123;-85
2022/04/13 05:53:40;;;;;;;20.92;11.23;;;11.80;99.90;;;;;;4881918;29;20047;-85
2022/04/13 05:56:06;;;;;;;18.20;11.05;;;11.80;99.90;;;;;;4882252;29;20119;-85
2022/04/13 05:58:32;;;;;;;22.92;11.73;;;11.80;99.90;;;;;;4894570;29;20040;-85
2022/04/13 06:00:58;;;;;;;17.80;11.13;;;12.00;99.90;;;;;;4882993;29;20053;-85
2022/04/13 06:03:24;;;;;;;21.25;11.82;;;11.80;99.90;;;;;;4897102;29;20052;-85
2022/04/13 06:05:50;;;;;;;20.50;11.32;;;11.90;99.90;;;;;;4896687;29;20070;-85
2022/04/13 06:08:17;;;;;;;20.77;11.20;;;11.90;99.90;;;;;;4897820;29;20123;-85
2022/04/13 06:10:43;;;;;;;21.40;11.80;;;11.90;99.90;;;;;;4887948;29;20137;-85
2022/04/13 06:13:08;;;;;;;18.80;11.63;;;12.00;99.90;;;;;;4896995;29;20065;-85
2022/04/13 06:15:34;;;;;;;19.92;12.43;;;12.00;99.90;;;;;;4882259;29;20044;-85
2022/04/13 06:18:00;;;;;;;19.17;12.38;;;12.10;99.90;;;;;;4866914;29;20048;-85
2022/04/13 06:20:26;;;;;;;24.05;13.20;;;12.20;99.90;;;;;;4897289;29;20127;-85
2022/04/13 06:22:52;;;;;;;22.33;12.45;;;12.30;99.90;;;;;;4861494;29;20128;-85
2022/04/13 06:25:18;;;;;;;21.60;12.88;;;12.40;99.90;;;;;;4880689;29;20041;-85
2022/04/13 06:27:44;;;;;;;21.30;12.75;;;12.50;99.90;;;;;;4880097;29;20095;-86
2022/04/13 06:30:11;;;;;;;21.08;12.50;;;12.70;99.90;;;;;;4897255;29;20060;-85
2022/04/13 06:32:43;;;;;;;18.55;11.80;;;12.80;99.90;;;;;;4880125;29;20037;-86
2022/04/13 06:35:12;;;;;;;22.17;12.15;;;12.80;99.90;;;;;;4896347;29;20486;-85
2022/04/13 06:37:43;;;;;;;22.27;12.45;;;12.80;99.90;;;;;;4899809;29;20047;-85
2022/04/13 06:40:11;;;;;;;20.75;11.73;;;12.90;99.90;;;;;;4896429;29;20051;-85
2022/04/13 06:42:37;;;;;;;20.55;11.05;;;13.00;99.90;;;;;;4887815;29;20076;-86
2022/04/13 06:45:05;;;;;;;21.90;11.73;;;13.00;99.90;;;;;;4897287;29;20447;-86
2022/04/13 06:47:31;;;;;;;18.80;11.38;;;13.10;99.90;;;;;;4881618;29;20478;-85
2022/04/13 06:49:57;;;;;;;20.20;12.32;;;13.20;99.90;;;;;;4878243;29;20052;-85
2022/04/13 06:52:22;;;;;;;20.17;11.80;;;13.20;99.90;;;;;;4869495;29;20041;-86
2022/04/13 06:54:48;;;;;;;21.52;12.63;;;13.30;99.90;;;;;;4890874;29;20495;-86
2022/04/13 06:57:14;;;;;;;23.98;11.68;;;13.30;99.90;;;;;;4881338;29;20409;-85
2022/04/13 06:59:40;;;;;;;23.25;12.48;;;13.30;99.90;;;;;;4881128;29;20155;-86
2022/04/13 07:02:12;;;;;;;22.20;12.32;;;13.40;99.90;;;;;;4873706;29;20502;-86
2022/04/13 07:04:39;;;;;;;21.58;12.25;;;13.50;99.90;;;;;;4882365;29;20041;-86
2022/04/13 07:07:06;;;;;;;20.60;11.60;;;13.60;99.90;;;;;;4876287;29;20108;-86
2022/04/13 07:09:32;;;;;;;20.33;11.30;;;13.70;99.90;;;;;;4895658;29;20047;-86
2022/04/13 07:11:58;;;;;;;18.88;11.65;;;13.80;99.90;;;;;;4897241;29;20036;-86
2022/04/13 07:14:23;;;;;;;22.95;12.23;;;13.90;99.90;;;;;;4881104;29;20096;-86
2022/04/13 07:16:49;;;;;;;21.70;11.63;;;13.90;99.90;;;;;;4881478;29;20045;-87
2022/04/13 07:19:15;;;;;;;19.77;11.48;;;14.00;99.90;;;;;;4897318;29;20470;-88
2022/04/13 07:21:41;;;;;;;21.70;10.30;;;14.10;99.90;;;;;;4878847;29;20052;-90
2022/04/13 07:24:07;;;;;;;21.02;10.23;;;14.10;99.90;;;;;;4880859;29;20096;-86
2022/04/13 07:26:32;;;;;;;19.60;10.32;;;14.20;99.90;;;;;;4880645;29;20041;-86
2022/04/13 07:28:59;;;;;;;19.95;10.55;;;14.30;99.90;;;;;;4896710;29;20092;-86
2022/04/13 07:31:24;;;;;;;16.83;9.55;;;14.40;99.90;;;;;;4880488;29;20080;-85
2022/04/13 07:33:50;;;;;;;19.25;9.95;;;14.50;99.90;;;;;;4895938;29;20075;-86
2022/04/13 07:36:16;;;;;;;16.80;9.90;;;14.70;99.90;;;;;;4880503;29;20079;-86
2022/04/13 07:38:42;;;;;;;19.63;9.98;;;14.70;99.90;;;;;;4884598;29;20045;-86
2022/04/13 07:41:07;;;;;;;16.70;9.95;;;14.80;99.90;;;;;;4904403;29;20037;-85
2022/04/13 07:43:33;;;;;;;19.20;10.27;;;14.90;99.90;;;;;;4910234;29;20119;-86
2022/04/13 07:45:59;;;;;;;21.20;10.55;;;14.90;99.90;;;;;;4880293;29;20123;-86
2022/04/13 07:48:25;;;;;;;23.10;10.13;;;14.90;99.90;;;;;;4877354;29;20582;-86
2022/04/13 07:50:50;;;;;;;17.35;10.68;;;14.90;99.90;;;;;;4863341;29;20045;-86
2022/04/13 07:53:16;;;;;;;19.75;9.50;;;14.80;99.90;;;;;;4897253;29;20036;-86
2022/04/13 07:55:42;;;;;;;19.73;10.25;;;14.90;99.90;;;;;;4880792;29;20044;-86
2022/04/13 07:58:07;;;;;;;18.77;11.18;;;14.90;99.90;;;;;;4880279;29;20513;-86
2022/04/13 08:00:33;;;;;;;19.48;10.68;;;14.80;99.90;;;;;;4883205;29;20059;-86
2022/04/13 08:03:00;;;;;;;19.13;10.60;;;14.80;99.90;;;;;;4895734;29;20112;-87
2022/04/13 08:05:26;;;;;;;19.77;10.88;;;14.70;99.90;;;;;;4863904;29;20123;-87
2022/04/13 08:07:52;;;;;;;18.13;10.63;;;14.70;99.90;;;;;;4877066;29;20120;-85
2022/04/13 08:10:17;;;;;;;18.45;10.93;;;14.70;99.90;;;;;;4880488;29;20111;-86
2022/04/13 08:12:46;;;;;;;24.42;11.07;;;14.80;99.90;;;;;;4876638;29;20040;-85
2022/04/13 08:15:13;;;;;;;18.05;10.10;;;14.80;99.90;;;;;;4861119;29;20049;-88
2022/04/13 08:17:40;;;;;;;19.48;10.88;;;14.80;99.90;;;;;;4876844;29;20045;-85
2022/04/13 08:20:11;;;;;;;21.13;10.73;;;14.80;99.90;;;;;;4876764;29;20044;-85
2022/04/13 08:22:37;;;;;;;18.75;9.80;;;14.90;99.90;;;;;;4879702;29;20076;-84
2022/04/13 08:25:04;;;;;;;19.70;10.38;;;15.00;99.90;;;;;;4879934;29;20083;-85
2022/04/13 08:27:29;;;;;;;18.58;10.32;;;15.00;99.90;;;;;;4895353;29;20532;-85
2022/04/13 08:29:55;;;;;;;17.75;10.27;;;15.20;99.90;;;;;;4879433;29;20036;-84
2022/04/13 08:32:21;;;;;;;18.63;10.18;;;15.30;99.90;;;;;;4879839;29;20048;-85
2022/04/13 08:34:51;;;;;;;18.48;9.90;;;15.40;99.90;;;;;;4895008;29;20063;-85
2022/04/13 08:37:18;;;;;;;17.08;9.85;;;15.50;99.90;;;;;;4893849;29;20048;-85
2022/04/13 08:39:44;;;;;;;17.27;9.63;;;15.60;99.90;;;;;;4888725;29;20049;-85
2022/04/13 08:42:27;;;;;;;18.80;10.57;;;15.80;99.90;;;;;;4879714;29;20055;-84
2022/04/13 08:44:53;;;;;;;18.30;10.10;;;15.80;99.90;;;;;;4910921;29;20457;-85
2022/04/13 08:47:21;;;;;;;21.58;10.55;;;16.00;99.90;;;;;;4882614;29;20151;-85
2022/04/13 08:49:49;;;;;;;18.48;9.90;;;16.20;99.90;;;;;;4894844;29;20120;-85
2022/04/13 08:52:19;;;;;;;23.35;10.57;;;16.30;99.90;;;;;;4894992;29;20095;-85
2022/04/13 08:55:05;;;;;;;15.38;9.15;;;16.40;99.90;;;;;;4879683;29;20044;-80
2022/04/13 08:57:36;;;;;;;16.65;9.75;;;16.60;99.90;;;;;;4894546;29;20049;-85
2022/04/13 09:00:11;;;;;;;16.17;9.45;;;16.60;99.90;;;;;;4894505;29;20092;-85
2022/04/13 09:03:04;;;;;;;19.98;10.02;;;16.70;99.90;;;;;;4876868;29;20129;-85
2022/04/13 09:05:32;;;;;;;18.75;9.30;;;16.80;99.90;;;;;;4891642;29;20459;-84
2022/04/13 09:08:16;;;;;;;15.13;8.27;;;16.90;99.90;;;;;;4875880;29;20042;-85
2022/04/13 09:10:43;;;;;;;16.88;9.35;;;16.90;99.90;;;;;;4891826;29;20198;-85
2022/04/13 09:13:10;;;;;;;16.08;8.55;;;17.00;99.90;;;;;;4878122;29;20040;-85
2022/04/13 09:15:41;;;;;;;15.13;7.90;;;17.10;99.90;;;;;;4880494;29;20053;-89
2022/04/13 09:18:08;;;;;;;15.63;8.07;;;17.00;99.90;;;;;;4895801;29;20041;-85
2022/04/13 09:20:34;;;;;;;14.77;7.03;;;16.90;99.90;;;;;;4915200;29;20132;-85
2022/04/13 09:23:01;;;;;;;16.20;7.53;;;16.80;99.90;;;;;;4883390;29;20061;-85
2022/04/13 09:25:29;;;;;;;15.98;7.40;;;16.80;99.90;;;;;;4867645;29;20041;-86
2022/04/13 09:27:57;;;;;;;15.30;7.18;;;16.90;99.90;;;;;;4898395;29;20044;-86
2022/04/13 09:30:23;;;;;;;13.52;6.85;;;17.00;99.90;;;;;;4897813;29;20048;-85
2022/04/13 09:32:50;;;;;;;16.65;7.88;;;17.10;99.90;;;;;;4882720;29;20045;-84
2022/04/13 09:35:16;;;;;;;15.55;7.63;;;17.10;99.90;;;;;;4898753;29;20398;-84
2022/04/13 09:37:43;;;;;;;14.13;7.72;;;17.10;99.90;;;;;;4879661;29;20049;-85
2022/04/13 09:40:10;;;;;;;15.35;7.47;;;17.20;99.90;;;;;;4896750;29;20108;-85
2022/04/13 09:42:37;;;;;;;15.75;6.85;;;17.30;99.90;;;;;;4895003;29;20048;-85
2022/04/13 09:45:03;;;;;;;16.80;7.30;;;17.40;99.90;;;;;;4895165;29;20084;-84
2022/04/13 09:47:33;;;;;;;17.42;7.38;;;17.50;99.90;;;;;;4879501;29;20041;-86
2022/04/13 09:50:00;;;;;;;15.52;7.10;;;17.60;99.90;;;;;;4866836;29;20045;-85
2022/04/13 09:52:38;;;;;;;14.13;7.07;;;17.70;99.90;;;;;;4881801;29;20044;-85
2022/04/13 09:55:05;;;;;;;14.00;7.00;;;17.70;99.90;;;;;;4898428;29;20462;-85
2022/04/13 09:57:32;;;;;;;14.63;7.05;;;17.80;99.90;;;;;;4867137;29;20103;-86
2022/04/13 10:00:00;;;;;;;13.05;6.88;;;17.90;99.90;;;;;;4913394;29;20051;-85
2022/04/13 10:02:38;;;;;;;12.27;6.50;;;17.90;99.90;;;;;;4881748;29;20056;-90
2022/04/13 10:05:09;;;;;;;13.57;6.32;;;18.00;99.90;;;;;;4898391;29;20053;-85
2022/04/13 10:07:36;;;;;;;14.55;6.07;;;18.10;99.90;;;;;;4897807;29;20047;-89
2022/04/13 10:10:21;;;;;;;13.23;6.28;;;18.20;99.90;;;;;;4897829;29;20123;-85
2022/04/13 10:12:47;;;;;;;15.05;6.47;;;18.30;99.90;;;;;;4881742;29;20045;-85
2022/04/13 10:15:13;;;;;;;12.75;5.93;;;18.40;99.90;;;;;;4882585;29;20382;-85
2022/04/13 10:17:39;;;;;;;14.45;6.57;;;18.40;99.90;;;;;;4881717;29;20040;-84
2022/04/13 10:20:05;;;;;;;14.05;6.55;;;18.50;99.90;;;;;;4882485;29;20040;-86
2022/04/13 10:22:31;;;;;;;13.43;6.05;;;18.60;99.90;;;;;;4881778;29;20040;-85
2022/04/13 10:25:17;;;;;;;13.55;6.43;;;18.50;99.90;;;;;;4881700;29;20132;-85
2022/04/13 10:27:57;;;;;;;12.98;6.10;;;18.50;99.90;;;;;;4897403;29;20446;-85
2022/04/13 10:30:34;;;;;;;13.27;5.45;;;18.50;99.90;;;;;;4897121;29;20036;-85
2022/04/13 10:33:08;;;;;;;11.52;5.15;;;18.50;99.90;;;;;;4897104;29;20375;-85
2022/04/13 10:35:39;;;;;;;12.35;5.15;;;18.40;99.90;;;;;;4884015;29;20126;-85
2022/04/13 10:38:05;;;;;;;12.10;5.03;;;18.30;99.90;;;;;;4897334;29;20410;-85
2022/04/13 10:40:33;;;;;;;10.95;4.47;;;18.40;99.90;;;;;;4881482;29;20040;-85
2022/04/13 10:43:04;;;;;;;11.65;4.30;;;18.60;99.90;;;;;;4881906;29;20196;-85
2022/04/13 10:45:30;;;;;;;9.52;4.22;;;18.70;99.90;;;;;;4881395;29;20058;-85
2022/04/13 10:48:05;;;;;;;10.75;4.13;;;18.80;99.90;;;;;;4896982;29;20517;-85
2022/04/13 10:50:54;;;;;;;10.52;4.30;;;18.90;99.90;;;;;;4889000;29;20044;-85
2022/04/13 10:53:30;;;;;;;10.90;4.03;;;19.30;99.90;;;;;;4881861;29;20044;-84
2022/04/13 10:56:01;;;;;;;10.75;4.47;;;19.50;99.90;;;;;;4897038;29;20045;-93
2022/04/13 10:58:42;;;;;;;10.15;4.18;;;19.60;99.90;;;;;;4881596;29;20397;-89
2022/04/13 11:01:11;;;;;;;12.85;4.57;;;19.70;99.90;;;;;;4896643;29;20140;-85
2022/04/13 11:03:38;;;;;;;11.27;4.45;;;19.70;99.90;;;;;;4878088;29;20125;-84
2022/04/13 11:06:06;;;;;;;9.18;3.90;;;19.60;99.90;;;;;;4905485;29;20045;-87
2022/04/13 11:08:50;;;;;;;9.77;3.70;;;19.60;99.90;;;;;;4912835;29;20148;-88
2022/04/13 11:11:19;;;;;;;10.82;3.88;;;19.50;99.90;;;;;;4891524;29;20482;-92
2022/04/13 11:13:49;;;;;;;10.40;3.97;;;19.50;99.90;;;;;;4896467;29;20502;-86
2022/04/13 11:16:17;;;;;;;10.88;4.32;;;19.40;99.90;;;;;;4867222;29;20418;-84
2022/04/13 11:19:05;;;;;;;11.18;4.05;;;19.50;99.90;;;;;;4896536;29;20052;-88
2022/04/13 11:21:32;;;;;;;9.98;3.83;;;19.60;99.90;;;;;;4896571;29;20139;-85
2022/04/13 11:23:58;;;;;;;10.60;3.92;;;19.70;99.90;;;;;;4881108;29;20055;-88
2022/04/13 11:26:36;;;;;;;9.20;3.90;;;19.70;99.90;;;;;;4880507;29;20067;-88
2022/04/13 11:29:40;;;;;;;10.38;4.28;;;19.70;99.90;;;;;;4896567;29;20081;-88
2022/04/13 11:32:11;;;;;;;10.52;3.85;;;19.80;99.90;;;;;;4879741;29;20136;-87
2022/04/13 11:34:48;;;;;;;10.73;3.70;;;19.80;99.90;;;;;;4880722;29;20045;-87
2022/04/13 11:37:18;;;;;;;8.35;3.20;;;19.80;99.90;;;;;;4880393;29;20100;-89
2022/04/13 11:39:52;;;;;;;8.35;3.03;;;19.70;99.90;;;;;;4880956;29;20045;-92
2022/04/13 11:42:21;;;;;;;10.68;3.28;;;19.60;99.90;;;;;;4893807;29;20045;-87
2022/04/13 11:44:51;;;;;;;9.60;3.30;;;19.40;99.90;;;;;;4895726;29;20420;-88
2022/04/13 11:47:18;;;;;;;9.80;3.70;;;19.40;99.90;;;;;;4896571;29;20037;-89
2022/04/13 11:50:18;;;;;;;10.25;3.65;;;19.30;99.90;;;;;;4895944;29;20048;-87
2022/04/13 11:52:52;;;;;;;9.57;3.35;;;19.20;99.90;;;;;;4893386;29;20055;-87
2022/04/13 11:55:19;;;;;;;11.65;3.22;;;19.00;99.90;;;;;;4890018;29;20044;-88
2022/04/13 11:58:04;;;;;;;8.95;3.33;;;18.90;99.90;;;;;;4893854;29;20050;-87
2022/04/13 12:00:54;;;;;;;11.18;3.50;;;18.80;99.90;;;;;;4895766;29;20246;-88
2022/04/13 12:03:28;;;;;;;10.43;3.47;;;18.60;99.90;;;;;;4894946;29;20051;-90
2022/04/13 12:06:19;;;;;;;10.45;3.50;;;18.50;99.90;;;;;;4879935;29;20044;-88
2022/04/13 12:08:56;;;;;;;10.05;3.45;;;18.40;99.90;;;;;;4910959;29;20044;-89
2022/04/13 12:11:36;;;;;;;11.07;3.85;;;18.40;99.90;;;;;;4910896;29;20074;-88
2022/04/13 12:14:02;;;;;;;12.02;4.07;;;18.40;99.90;;;;;;4892077;29;20045;-88
2022/04/13 12:16:41;;;;;;;11.80;4.55;;;18.30;99.90;;;;;;4878811;29;20100;-88
2022/04/13 12:19:11;;;;;;;13.65;5.03;;;18.40;99.90;;;;;;4879691;29;20040;-87
2022/04/13 12:21:40;;;;;;;12.07;4.68;;;18.30;99.90;;;;;;4894926;29;20044;-87
2022/04/13 12:24:10;;;;;;;13.32;4.90;;;18.30;99.90;;;;;;4895806;29;20096;-88
2022/04/13 12:26:41;;;;;;;12.73;5.22;;;18.40;99.90;;;;;;4895374;29;20047;-89
2022/04/13 12:29:18;;;;;;;13.00;4.82;;;18.40;99.90;;;;;;4894304;29;20490;-88
2022/04/13 12:31:49;;;;;;;12.80;4.45;;;18.30;99.90;;;;;;4895739;29;20037;-88
2022/04/13 12:34:16;;;;;;;12.65;4.93;;;18.30;99.90;;;;;;4879282;29;20040;-89
2022/04/13 12:36:43;;;;;;;12.00;4.25;;;18.30;99.90;;;;;;4893427;29;20047;-88
2022/04/13 12:39:09;;;;;;;11.57;4.45;;;18.40;99.90;;;;;;4894184;29;20119;-88